createdAt,value
2018-10-21T00:00:26.419Z,66.60
2018-10-21T00:05:30.177Z,67.10
2018-10-21T00:10:33.919Z,67.30
2018-10-21T00:15:37.769Z,67.30
2018-10-21T00:20:41.364Z,67.30
2018-10-21T00:25:45.073Z,67.80
2018-10-21T00:30:48.811Z,67.30
2018-10-21T00:35:52.559Z,68.30
2018-10-21T00:40:56.463Z,68.00
2018-10-21T00:46:00.199Z,67.90
2018-10-21T00:51:04.201Z,68.00
2018-10-21T00:56:07.935Z,68.00
2018-10-21T01:01:11.656Z,67.00
2018-10-21T01:06:15.387Z,67.70
2018-10-21T01:11:19.188Z,67.80
2018-10-21T01:16:23.162Z,67.60
2018-10-21T01:21:26.860Z,68.60
2018-10-21T01:26:30.589Z,68.60
2018-10-21T01:31:34.327Z,67.80
2018-10-21T01:36:38.229Z,67.00
2018-10-21T01:41:41.856Z,68.40
2018-10-21T01:46:45.660Z,68.70
2018-10-21T01:51:49.388Z,67.50
2018-10-21T01:56:53.110Z,68.20
2018-10-21T02:01:56.816Z,68.60
2018-10-21T02:07:00.531Z,69.00
2018-10-21T02:12:04.296Z,68.90
2018-10-21T02:17:08.043Z,68.90
2018-10-21T02:22:11.780Z,68.60
2018-10-21T02:27:15.590Z,69.80
2018-10-21T02:32:19.277Z,68.90
2018-10-21T02:37:23.110Z,68.90
2018-10-21T02:42:26.831Z,68.90
2018-10-21T02:47:30.588Z,68.90
2018-10-21T02:52:34.320Z,69.00
2018-10-21T02:57:38.051Z,68.90
2018-10-21T03:02:41.879Z,69.00
2018-10-21T03:07:45.612Z,69.20
2018-10-21T03:12:49.315Z,69.20
2018-10-21T03:17:53.052Z,69.20
2018-10-21T03:22:56.800Z,68.60
2018-10-21T03:28:00.531Z,69.40
2018-10-21T03:33:04.264Z,69.10
2018-10-21T03:38:07.999Z,69.60
2018-10-21T03:43:11.747Z,69.50
2018-10-21T03:48:15.447Z,69.60
2018-10-21T03:53:19.179Z,70.00
2018-10-21T03:58:22.915Z,69.80
2018-10-21T04:03:26.635Z,69.90
2018-10-21T04:08:30.351Z,69.70
2018-10-21T04:13:34.079Z,69.70
2018-10-21T04:18:37.805Z,69.70
2018-10-21T04:23:41.532Z,69.30
2018-10-21T04:28:45.261Z,69.10
2018-10-21T04:33:48.982Z,69.20
2018-10-21T04:40:09.445Z,69.10
2018-10-21T04:45:14.571Z,68.40
2018-10-21T04:50:18.357Z,68.40
2018-10-21T04:55:22.071Z,69.30
2018-10-21T05:00:25.827Z,69.10
2018-10-21T05:05:29.555Z,68.40
2018-10-21T05:10:39.922Z,67.90
2018-10-21T05:15:43.651Z,68.70
2018-10-21T05:20:47.387Z,68.40
2018-10-21T05:25:51.135Z,68.70
2018-10-21T05:30:54.856Z,68.60
2018-10-21T05:35:58.603Z,68.00
2018-10-21T05:41:02.443Z,68.00
2018-10-21T05:46:06.289Z,68.60
2018-10-21T05:51:10.044Z,68.70
2018-10-21T05:56:13.779Z,68.50
2018-10-21T06:01:17.527Z,67.60
2018-10-21T06:06:21.311Z,68.70
2018-10-21T06:11:25.028Z,68.50
2018-10-21T06:16:31.070Z,67.90
2018-10-21T06:21:34.998Z,68.80
2018-10-21T06:26:38.731Z,68.90
2018-10-21T06:31:42.552Z,68.90
2018-10-21T06:36:46.379Z,69.00
2018-10-21T06:41:50.065Z,69.40
2018-10-21T06:46:53.853Z,69.20
2018-10-21T06:51:57.593Z,69.50
2018-10-21T06:57:01.491Z,69.90
2018-10-21T07:02:05.259Z,69.10
2018-10-21T07:07:08.975Z,69.90
2018-10-21T07:12:12.790Z,69.70
2018-10-21T07:17:16.531Z,70.40
2018-10-21T07:22:20.328Z,70.40
2018-10-21T07:27:24.089Z,70.30
2018-10-21T07:32:27.820Z,70.50
2018-10-21T07:37:31.615Z,71.00
2018-10-21T07:42:35.354Z,70.80
2018-10-21T07:47:39.111Z,70.90
2018-10-21T07:52:42.848Z,70.90
2018-10-21T07:57:47.243Z,70.90
2018-10-21T08:02:50.975Z,71.20
2018-10-21T08:08:19.460Z,71.00
2018-10-21T08:13:24.513Z,71.00
2018-10-21T08:18:28.254Z,70.80
2018-10-21T08:23:31.979Z,71.40
2018-10-21T08:28:35.720Z,71.10
2018-10-21T08:33:39.464Z,71.00
2018-10-21T08:38:43.279Z,71.50
2018-10-21T08:43:47.024Z,71.30
2018-10-21T08:48:50.747Z,71.60
2018-10-21T08:53:54.579Z,71.70
2018-10-21T08:58:58.936Z,71.00
2018-10-21T09:04:02.689Z,71.10
2018-10-21T09:09:08.046Z,71.00
2018-10-21T09:14:12.340Z,71.00
2018-10-21T09:19:16.184Z,71.00
2018-10-21T09:24:19.936Z,71.30
2018-10-21T09:29:23.820Z,71.40
2018-10-21T09:34:27.565Z,71.70
2018-10-21T09:39:31.318Z,71.90
2018-10-21T09:44:35.068Z,72.90
2018-10-21T09:49:38.779Z,72.30
2018-10-21T09:54:42.516Z,72.80
2018-10-21T09:59:46.248Z,72.00
2018-10-21T10:04:49.975Z,72.00
2018-10-21T10:09:53.858Z,71.60
2018-10-21T10:14:57.543Z,72.00
2018-10-21T10:20:01.302Z,72.10
2018-10-21T10:25:06.146Z,72.80
2018-10-21T10:30:11.939Z,72.90
2018-10-21T10:35:15.669Z,72.30
2018-10-21T10:40:19.495Z,72.60
2018-10-21T10:45:23.123Z,73.50
2018-10-21T10:50:26.894Z,73.20
2018-10-21T10:55:35.984Z,72.30
2018-10-21T11:00:39.725Z,71.90
2018-10-21T11:05:43.499Z,71.30
2018-10-21T11:10:47.231Z,71.40
2018-10-21T11:15:51.023Z,71.20
2018-10-21T11:20:54.727Z,70.90
2018-10-21T11:25:58.455Z,70.20
2018-10-21T11:31:02.203Z,69.50
2018-10-21T11:36:05.901Z,70.00
2018-10-21T11:41:09.635Z,68.30
2018-10-21T11:46:13.493Z,67.90
2018-10-21T11:51:17.077Z,68.30
2018-10-21T11:56:20.805Z,68.10
2018-10-21T12:01:24.625Z,67.60
2018-10-21T12:06:28.518Z,67.30
2018-10-21T12:11:32.200Z,67.00
2018-10-21T12:16:36.012Z,66.90
2018-10-21T12:21:39.763Z,66.00
2018-10-21T12:26:43.547Z,65.30
2018-10-21T12:31:47.377Z,65.60
2018-10-21T12:36:51.196Z,64.50
2018-10-21T12:41:54.936Z,65.10
2018-10-21T12:46:58.703Z,64.70
2018-10-21T12:52:02.458Z,64.60
2018-10-21T12:57:06.146Z,64.70
2018-10-21T13:02:10.055Z,63.80
2018-10-21T13:07:13.810Z,64.00
2018-10-21T13:12:17.536Z,64.00
2018-10-21T13:17:21.494Z,62.30
2018-10-21T13:22:25.206Z,62.50
2018-10-21T13:27:28.915Z,62.40
2018-10-21T13:32:32.631Z,61.70
2018-10-21T13:37:36.351Z,62.60
2018-10-21T13:42:40.088Z,62.40
2018-10-21T13:47:43.818Z,61.30
2018-10-21T13:52:47.531Z,60.70
2018-10-21T13:57:51.344Z,60.40
2018-10-21T14:02:55.091Z,60.00
2018-10-21T14:07:58.885Z,59.40
2018-10-21T14:13:02.610Z,59.70
2018-10-21T14:18:06.416Z,59.20
2018-10-21T14:23:10.139Z,59.10
2018-10-21T14:28:13.876Z,59.50
2018-10-21T14:33:17.651Z,59.60
2018-10-21T14:38:21.451Z,59.90
2018-10-21T14:43:25.119Z,60.10
2018-10-21T14:48:28.828Z,59.70
2018-10-21T14:53:32.551Z,59.10
2018-10-21T14:58:36.531Z,59.00
2018-10-21T15:03:40.248Z,59.50
2018-10-21T15:08:43.956Z,59.30
2018-10-21T15:13:47.680Z,59.40
2018-10-21T15:18:51.380Z,59.90
2018-10-21T15:23:55.107Z,59.40
2018-10-21T15:28:58.902Z,59.10
2018-10-21T15:34:02.744Z,60.20
2018-10-21T15:39:08.321Z,60.00
2018-10-21T15:44:12.159Z,60.30
2018-10-21T15:49:15.793Z,60.40
2018-10-21T15:54:19.575Z,60.50
2018-10-21T15:59:23.291Z,61.00
2018-10-21T16:04:27.000Z,60.90
2018-10-21T16:09:30.696Z,60.70
2018-10-21T16:14:34.512Z,61.10
2018-10-21T16:19:38.165Z,61.00
2018-10-21T16:24:41.904Z,61.00
2018-10-21T16:29:45.615Z,61.30
2018-10-21T16:34:49.396Z,61.10
2018-10-21T16:39:53.181Z,61.00
2018-10-21T16:44:57.174Z,61.30
2018-10-21T16:50:00.860Z,61.00
2018-10-21T16:55:05.562Z,61.30
2018-10-21T17:00:13.171Z,61.60
2018-10-21T17:05:16.873Z,60.40
2018-10-21T17:10:20.946Z,61.30
2018-10-21T17:15:24.318Z,61.80
2018-10-21T17:20:28.058Z,61.50
2018-10-21T17:25:31.795Z,62.00
2018-10-21T17:30:35.690Z,62.40
2018-10-21T17:35:39.345Z,62.20
2018-10-21T17:40:43.240Z,61.70
2018-10-21T17:45:46.914Z,62.00
2018-10-21T17:50:50.591Z,61.70
2018-10-21T17:55:54.297Z,61.60
2018-10-21T18:00:58.079Z,62.30
2018-10-21T18:06:01.896Z,62.00
2018-10-21T18:11:06.679Z,62.60
2018-10-21T18:16:10.495Z,62.70
2018-10-21T18:21:14.183Z,62.30
2018-10-21T18:26:17.916Z,62.50
2018-10-21T18:31:21.680Z,62.00
2018-10-21T18:36:25.384Z,62.90
2018-10-21T18:41:29.091Z,62.40
2018-10-21T18:46:32.894Z,62.70
2018-10-21T18:51:36.568Z,62.80
2018-10-21T18:56:40.308Z,62.60
2018-10-21T19:01:44.059Z,62.60
2018-10-21T19:06:47.779Z,62.10
2018-10-21T19:11:51.527Z,62.70
2018-10-21T19:16:55.263Z,62.60
2018-10-21T19:21:59.045Z,62.20
2018-10-21T19:27:02.785Z,62.30
2018-10-21T19:32:06.500Z,62.40
2018-10-21T19:37:10.265Z,62.80
2018-10-21T19:42:13.902Z,62.60
2018-10-21T19:47:17.630Z,62.50
2018-10-21T19:52:21.331Z,62.60
2018-10-21T19:57:25.303Z,62.60
2018-10-21T20:02:29.310Z,62.60
2018-10-21T20:07:33.112Z,63.20
2018-10-21T20:12:37.075Z,63.10
2018-10-21T20:17:41.007Z,62.80
2018-10-21T20:22:44.761Z,63.40
2018-10-21T20:27:48.488Z,62.70
2018-10-21T20:32:52.347Z,63.20
2018-10-21T20:37:55.938Z,63.60
2018-10-21T20:42:59.655Z,63.60
2018-10-21T20:48:03.491Z,63.80
2018-10-21T20:53:07.273Z,63.80
2018-10-21T20:58:11.006Z,63.60
2018-10-21T21:03:14.726Z,63.80
2018-10-21T21:08:18.494Z,63.90
2018-10-21T21:13:22.202Z,64.10
2018-10-21T21:18:25.951Z,63.80
2018-10-21T21:23:29.771Z,64.10
2018-10-21T21:28:33.476Z,63.90
2018-10-21T21:33:37.200Z,63.50
2018-10-21T21:38:41.032Z,63.90
2018-10-21T21:43:44.759Z,63.90
2018-10-21T21:48:49.078Z,64.10
2018-10-21T21:53:52.944Z,64.20
2018-10-21T21:58:56.862Z,64.10
2018-10-21T22:04:00.704Z,64.10
2018-10-21T22:09:09.856Z,64.20
2018-10-21T22:14:13.599Z,64.10
2018-10-21T22:19:17.335Z,64.20
2018-10-21T22:24:21.056Z,64.30
2018-10-21T22:29:24.784Z,64.20
2018-10-21T22:34:28.514Z,64.30
2018-10-21T22:39:32.208Z,64.20
2018-10-21T22:44:35.931Z,64.30
2018-10-21T22:49:39.639Z,64.40
2018-10-21T22:54:43.359Z,64.20
2018-10-21T22:59:48.521Z,64.30
2018-10-21T23:04:52.233Z,63.50
2018-10-21T23:09:55.955Z,64.00
2018-10-21T23:14:59.656Z,64.00
2018-10-21T23:20:03.369Z,64.00
2018-10-21T23:25:07.389Z,64.50
2018-10-21T23:30:11.143Z,64.20
2018-10-21T23:35:14.821Z,64.40
2018-10-21T23:40:18.640Z,64.60
2018-10-21T23:45:22.269Z,64.10
2018-10-21T23:50:25.983Z,64.00
2018-10-21T23:55:29.700Z,64.00
